sensor_id;sensor_type;location;lat;lon;timestamp;P1;durP1;ratioP1;P2;durP2;ratioP2
595;SDS011;19946;49.306;11.350;2022-12-18T00:01:47;12.90;;;12.60;;
595;SDS011;19946;49.306;11.350;2022-12-18T00:04:48;12.95;;;12.65;;
595;SDS011;19946;49.306;11.350;2022-12-18T00:07:50;17.73;;;17.33;;
595;SDS011;19946;49.306;11.350;2022-12-18T00:10:50;17.20;;;16.80;;
595;SDS011;19946;49.306;11.350;2022-12-18T00:13:52;15.73;;;15.32;;
595;SDS011;19946;49.306;11.350;2022-12-18T00:16:55;16.60;;;16.20;;
595;SDS011;19946;49.306;11.350;2022-12-18T00:19:57;16.55;;;16.15;;
595;SDS011;19946;49.306;11.350;2022-12-18T00:22:58;17.10;;;16.70;;
595;SDS011;19946;49.306;11.350;2022-12-18T00:25:59;17.13;;;16.73;;
595;SDS011;19946;49.306;11.350;2022-12-18T00:29:10;16.58;;;16.17;;
595;SDS011;19946;49.306;11.350;2022-12-18T00:32:14;15.80;;;15.40;;
595;SDS011;19946;49.306;11.350;2022-12-18T00:35:16;17.00;;;16.60;;
595;SDS011;19946;49.306;11.350;2022-12-18T00:38:17;15.30;;;15.00;;
595;SDS011;19946;49.306;11.350;2022-12-18T00:41:19;14.95;;;14.65;;
595;SDS011;19946;49.306;11.350;2022-12-18T00:44:42;15.20;;;14.90;;
595;SDS011;19946;49.306;11.350;2022-12-18T00:47:43;16.70;;;16.30;;
595;SDS011;19946;49.306;11.350;2022-12-18T00:50:44;14.20;;;13.90;;
595;SDS011;19946;49.306;11.350;2022-12-18T00:53:45;15.98;;;15.57;;
595;SDS011;19946;49.306;11.350;2022-12-18T00:56:47;15.43;;;15.02;;
595;SDS011;19946;49.306;11.350;2022-12-18T00:59:48;17.33;;;16.93;;
595;SDS011;19946;49.306;11.350;2022-12-18T01:02:48;16.37;;;15.97;;
595;SDS011;19946;49.306;11.350;2022-12-18T01:05:52;15.23;;;14.90;;
595;SDS011;19946;49.306;11.350;2022-12-18T01:08:53;15.50;;;15.10;;
595;SDS011;19946;49.306;11.350;2022-12-18T01:11:54;14.10;;;13.80;;
595;SDS011;19946;49.306;11.350;2022-12-18T01:14:57;15.00;;;14.70;;
595;SDS011;19946;49.306;11.350;2022-12-18T01:18:02;15.00;;;14.70;;
595;SDS011;19946;49.306;11.350;2022-12-18T01:21:07;15.57;;;15.18;;
595;SDS011;19946;49.306;11.350;2022-12-18T01:24:11;16.40;;;16.00;;
595;SDS011;19946;49.306;11.350;2022-12-18T01:27:12;18.73;;;18.23;;
595;SDS011;19946;49.306;11.350;2022-12-18T01:30:13;18.30;;;17.80;;
595;SDS011;19946;49.306;11.350;2022-12-18T01:33:15;18.95;;;18.45;;
595;SDS011;19946;49.306;11.350;2022-12-18T01:36:17;18.60;;;18.13;;
595;SDS011;19946;49.306;11.350;2022-12-18T01:39:23;16.73;;;16.33;;
595;SDS011;19946;49.306;11.350;2022-12-18T01:42:24;16.38;;;15.98;;
595;SDS011;19946;49.306;11.350;2022-12-18T01:45:28;16.90;;;16.50;;
595;SDS011;19946;49.306;11.350;2022-12-18T01:48:30;16.85;;;16.45;;
595;SDS011;19946;49.306;11.350;2022-12-18T01:51:32;17.35;;;16.95;;
595;SDS011;19946;49.306;11.350;2022-12-18T01:54:34;16.85;;;16.45;;
595;SDS011;19946;49.306;11.350;2022-12-18T01:57:37;17.20;;;16.80;;
595;SDS011;19946;49.306;11.350;2022-12-18T02:00:40;19.20;;;18.70;;
595;SDS011;19946;49.306;11.350;2022-12-18T02:03:42;19.27;;;18.77;;
595;SDS011;19946;49.306;11.350;2022-12-18T02:06:47;19.25;;;18.75;;
595;SDS011;19946;49.306;11.350;2022-12-18T02:10:12;18.58;;;18.08;;
595;SDS011;19946;49.306;11.350;2022-12-18T02:13:19;17.90;;;17.50;;
595;SDS011;19946;49.306;11.350;2022-12-18T02:26:43;20.20;;;19.70;;
595;SDS011;19946;49.306;11.350;2022-12-18T02:29:57;18.83;;;18.33;;
595;SDS011;19946;49.306;11.350;2022-12-18T02:33:04;20.65;;;20.15;;
595;SDS011;19946;49.306;11.350;2022-12-18T02:36:08;21.75;;;21.15;;
595;SDS011;19946;49.306;11.350;2022-12-18T02:39:12;22.35;;;21.75;;
595;SDS011;19946;49.306;11.350;2022-12-18T02:42:26;22.15;;;21.55;;
595;SDS011;19946;49.306;11.350;2022-12-18T02:45:29;21.50;;;20.90;;
595;SDS011;19946;49.306;11.350;2022-12-18T02:48:32;21.58;;;20.98;;
595;SDS011;19946;49.306;11.350;2022-12-18T02:51:47;22.17;;;21.57;;
595;SDS011;19946;49.306;11.350;2022-12-18T03:01:52;19.20;;;18.70;;
595;SDS011;19946;49.306;11.350;2022-12-18T03:05:05;19.70;;;19.20;;
595;SDS011;19946;49.306;11.350;2022-12-18T03:08:36;19.73;;;19.23;;
595;SDS011;19946;49.306;11.350;2022-12-18T03:11:52;21.67;;;21.07;;
595;SDS011;19946;49.306;11.350;2022-12-18T03:15:42;24.53;;;23.83;;
595;SDS011;19946;49.306;11.350;2022-12-18T03:19:23;23.40;;;22.80;;
595;SDS011;19946;49.306;11.350;2022-12-18T03:22:33;25.87;;;25.17;;
595;SDS011;19946;49.306;11.350;2022-12-18T03:25:47;24.17;;;23.47;;
595;SDS011;19946;49.306;11.350;2022-12-18T03:29:18;25.40;;;24.70;;
595;SDS011;19946;49.306;11.350;2022-12-18T03:32:53;23.60;;;22.90;;
595;SDS011;19946;49.306;11.350;2022-12-18T03:36:10;22.93;;;22.33;;
595;SDS011;19946;49.306;11.350;2022-12-18T03:43:06;21.93;;;21.33;;
595;SDS011;19946;49.306;11.350;2022-12-18T03:46:24;23.30;;;22.70;;
595;SDS011;19946;49.306;11.350;2022-12-18T03:54:06;21.40;;;20.80;;
595;SDS011;19946;49.306;11.350;2022-12-18T03:57:44;25.27;;;24.57;;
595;SDS011;19946;49.306;11.350;2022-12-18T04:01:14;25.37;;;24.67;;
595;SDS011;19946;49.306;11.350;2022-12-18T04:04:31;24.23;;;23.53;;
595;SDS011;19946;49.306;11.350;2022-12-18T04:08:30;23.13;;;22.47;;
595;SDS011;19946;49.306;11.350;2022-12-18T04:12:00;24.60;;;23.90;;
595;SDS011;19946;49.306;11.350;2022-12-18T04:15:03;23.60;;;22.90;;
595;SDS011;19946;49.306;11.350;2022-12-18T04:18:37;24.30;;;23.60;;
595;SDS011;19946;49.306;11.350;2022-12-18T04:21:45;22.13;;;21.53;;
595;SDS011;19946;49.306;11.350;2022-12-18T04:25:08;22.13;;;21.53;;
595;SDS011;19946;49.306;11.350;2022-12-18T04:28:37;24.83;;;24.13;;
595;SDS011;19946;49.306;11.350;2022-12-18T04:31:49;23.70;;;23.00;;
595;SDS011;19946;49.306;11.350;2022-12-18T04:34:52;19.67;;;19.17;;
595;SDS011;19946;49.306;11.350;2022-12-18T04:41:38;24.40;;;23.70;;
595;SDS011;19946;49.306;11.350;2022-12-18T04:45:05;24.50;;;23.80;;
595;SDS011;19946;49.306;11.350;2022-12-18T04:48:15;24.07;;;23.37;;
595;SDS011;19946;49.306;11.350;2022-12-18T04:51:23;24.10;;;23.40;;
595;SDS011;19946;49.306;11.350;2022-12-18T04:54:28;24.20;;;23.50;;
595;SDS011;19946;49.306;11.350;2022-12-18T04:58:03;24.33;;;23.63;;
595;SDS011;19946;49.306;11.350;2022-12-18T05:01:30;22.47;;;21.87;;
595;SDS011;19946;49.306;11.350;2022-12-18T05:04:38;26.13;;;25.37;;
595;SDS011;19946;49.306;11.350;2022-12-18T05:07:45;24.37;;;23.67;;
595;SDS011;19946;49.306;11.350;2022-12-18T05:11:11;25.77;;;25.07;;
595;SDS011;19946;49.306;11.350;2022-12-18T05:14:20;24.33;;;23.63;;
595;SDS011;19946;49.306;11.350;2022-12-18T05:17:33;25.33;;;24.63;;
595;SDS011;19946;49.306;11.350;2022-12-18T05:20:50;22.77;;;22.17;;
595;SDS011;19946;49.306;11.350;2022-12-18T05:24:21;24.00;;;23.30;;
595;SDS011;19946;49.306;11.350;2022-12-18T05:27:39;24.80;;;24.10;;
595;SDS011;19946;49.306;11.350;2022-12-18T05:30:54;26.13;;;25.43;;
595;SDS011;19946;49.306;11.350;2022-12-18T05:34:17;23.37;;;22.77;;
595;SDS011;19946;49.306;11.350;2022-12-18T05:37:44;23.20;;;22.60;;
595;SDS011;19946;49.306;11.350;2022-12-18T05:40:48;23.10;;;22.50;;
595;SDS011;19946;49.306;11.350;2022-12-18T05:44:07;24.20;;;23.50;;
595;SDS011;19946;49.306;11.350;2022-12-18T05:51:16;25.47;;;24.77;;
595;SDS011;19946;49.306;11.350;2022-12-18T05:54:19;25.33;;;24.63;;
595;SDS011;19946;49.306;11.350;2022-12-18T05:57:21;24.70;;;24.00;;
595;SDS011;19946;49.306;11.350;2022-12-18T06:00:22;25.73;;;25.03;;
595;SDS011;19946;49.306;11.350;2022-12-18T06:03:26;24.70;;;24.00;;
595;SDS011;19946;49.306;11.350;2022-12-18T06:06:27;26.70;;;26.00;;
595;SDS011;19946;49.306;11.350;2022-12-18T06:09:31;27.03;;;26.33;;
595;SDS011;19946;49.306;11.350;2022-12-18T06:12:33;27.47;;;26.67;;
595;SDS011;19946;49.306;11.350;2022-12-18T06:15:37;27.33;;;26.53;;
595;SDS011;19946;49.306;11.350;2022-12-18T06:18:38;27.23;;;26.43;;
595;SDS011;19946;49.306;11.350;2022-12-18T06:21:40;27.60;;;26.80;;
595;SDS011;19946;49.306;11.350;2022-12-18T06:24:41;28.63;;;27.83;;
595;SDS011;19946;49.306;11.350;2022-12-18T06:27:42;26.47;;;25.77;;
595;SDS011;19946;49.306;11.350;2022-12-18T06:30:46;27.07;;;26.27;;
595;SDS011;19946;49.306;11.350;2022-12-18T06:33:52;25.93;;;25.23;;
595;SDS011;19946;49.306;11.350;2022-12-18T06:37:14;26.43;;;25.73;;
595;SDS011;19946;49.306;11.350;2022-12-18T06:40:56;25.80;;;25.10;;
595;SDS011;19946;49.306;11.350;2022-12-18T06:44:20;27.27;;;26.47;;
595;SDS011;19946;49.306;11.350;2022-12-18T06:47:22;25.43;;;24.73;;
595;SDS011;19946;49.306;11.350;2022-12-18T06:50:23;27.13;;;26.33;;
595;SDS011;19946;49.306;11.350;2022-12-18T06:53:31;26.40;;;25.70;;
595;SDS011;19946;49.306;11.350;2022-12-18T06:56:45;29.53;;;28.70;;
595;SDS011;19946;49.306;11.350;2022-12-18T06:59:56;29.70;;;28.80;;
595;SDS011;19946;49.306;11.350;2022-12-18T07:03:02;25.40;;;24.70;;
595;SDS011;19946;49.306;11.350;2022-12-18T07:06:06;26.07;;;25.37;;
595;SDS011;19946;49.306;11.350;2022-12-18T07:09:06;25.73;;;25.03;;
595;SDS011;19946;49.306;11.350;2022-12-18T07:12:08;25.90;;;25.20;;
595;SDS011;19946;49.306;11.350;2022-12-18T07:15:09;26.17;;;25.47;;
595;SDS011;19946;49.306;11.350;2022-12-18T07:18:10;25.90;;;25.20;;
595;SDS011;19946;49.306;11.350;2022-12-18T07:21:13;27.20;;;26.40;;
595;SDS011;19946;49.306;11.350;2022-12-18T07:24:15;26.50;;;25.80;;
595;SDS011;19946;49.306;11.350;2022-12-18T07:27:15;25.60;;;24.90;;
595;SDS011;19946;49.306;11.350;2022-12-18T07:30:16;26.83;;;26.03;;
595;SDS011;19946;49.306;11.350;2022-12-18T07:33:16;28.10;;;27.30;;
595;SDS011;19946;49.306;11.350;2022-12-18T07:36:16;28.33;;;27.53;;
595;SDS011;19946;49.306;11.350;2022-12-18T07:39:17;28.77;;;27.97;;
595;SDS011;19946;49.306;11.350;2022-12-18T07:42:18;27.90;;;27.10;;
595;SDS011;19946;49.306;11.350;2022-12-18T07:45:30;28.33;;;27.53;;
595;SDS011;19946;49.306;11.350;2022-12-18T07:48:31;25.80;;;25.10;;
595;SDS011;19946;49.306;11.350;2022-12-18T07:51:31;26.50;;;25.80;;
595;SDS011;19946;49.306;11.350;2022-12-18T07:54:32;27.97;;;27.17;;
595;SDS011;19946;49.306;11.350;2022-12-18T07:57:32;29.10;;;28.27;;
595;SDS011;19946;49.306;11.350;2022-12-18T08:00:32;29.30;;;28.43;;
595;SDS011;19946;49.306;11.350;2022-12-18T08:03:33;29.80;;;28.90;;
595;SDS011;19946;49.306;11.350;2022-12-18T08:06:34;29.23;;;28.37;;
595;SDS011;19946;49.306;11.350;2022-12-18T08:09:35;29.87;;;28.97;;
595;SDS011;19946;49.306;11.350;2022-12-18T08:12:39;27.20;;;26.40;;
595;SDS011;19946;49.306;11.350;2022-12-18T08:15:39;27.70;;;26.90;;
595;SDS011;19946;49.306;11.350;2022-12-18T08:18:40;25.80;;;25.07;;
595;SDS011;19946;49.306;11.350;2022-12-18T08:21:40;29.70;;;28.80;;
595;SDS011;19946;49.306;11.350;2022-12-18T08:24:40;27.30;;;26.50;;
595;SDS011;19946;49.306;11.350;2022-12-18T08:27:41;26.20;;;25.40;;
595;SDS011;19946;49.306;11.350;2022-12-18T08:30:41;22.33;;;21.73;;
595;SDS011;19946;49.306;11.350;2022-12-18T08:33:42;25.63;;;24.83;;
595;SDS011;19946;49.306;11.350;2022-12-18T08:36:43;26.77;;;25.97;;
595;SDS011;19946;49.306;11.350;2022-12-18T08:39:43;24.10;;;23.40;;
595;SDS011;19946;49.306;11.350;2022-12-18T08:42:44;25.10;;;24.40;;
595;SDS011;19946;49.306;11.350;2022-12-18T08:46:02;27.87;;;27.07;;
595;SDS011;19946;49.306;11.350;2022-12-18T08:49:03;25.93;;;25.13;;
595;SDS011;19946;49.306;11.350;2022-12-18T08:52:06;26.43;;;25.63;;
595;SDS011;19946;49.306;11.350;2022-12-18T08:55:06;23.13;;;22.43;;
595;SDS011;19946;49.306;11.350;2022-12-18T08:58:10;24.03;;;23.33;;
595;SDS011;19946;49.306;11.350;2022-12-18T09:01:11;23.50;;;22.80;;
595;SDS011;19946;49.306;11.350;2022-12-18T09:04:13;24.70;;;24.00;;
595;SDS011;19946;49.306;11.350;2022-12-18T09:07:17;22.87;;;22.27;;
595;SDS011;19946;49.306;11.350;2022-12-18T09:10:17;23.73;;;23.03;;
595;SDS011;19946;49.306;11.350;2022-12-18T09:13:19;23.60;;;22.90;;
595;SDS011;19946;49.306;11.350;2022-12-18T09:16:20;24.50;;;23.80;;
595;SDS011;19946;49.306;11.350;2022-12-18T09:19:21;20.90;;;20.30;;
595;SDS011;19946;49.306;11.350;2022-12-18T09:22:21;23.53;;;22.83;;
595;SDS011;19946;49.306;11.350;2022-12-18T09:25:22;23.20;;;22.50;;
595;SDS011;19946;49.306;11.350;2022-12-18T09:28:22;23.77;;;23.07;;
595;SDS011;19946;49.306;11.350;2022-12-18T09:31:24;22.93;;;22.23;;
595;SDS011;19946;49.306;11.350;2022-12-18T09:34:27;23.80;;;23.10;;
595;SDS011;19946;49.306;11.350;2022-12-18T09:37:28;22.47;;;21.80;;
595;SDS011;19946;49.306;11.350;2022-12-18T09:40:28;21.93;;;21.33;;
595;SDS011;19946;49.306;11.350;2022-12-18T09:43:42;23.70;;;23.00;;
595;SDS011;19946;49.306;11.350;2022-12-18T09:47:13;20.70;;;20.10;;
595;SDS011;19946;49.306;11.350;2022-12-18T09:51:00;22.30;;;21.70;;
595;SDS011;19946;49.306;11.350;2022-12-18T09:54:40;23.37;;;22.67;;
595;SDS011;19946;49.306;11.350;2022-12-18T09:57:47;22.10;;;21.50;;
595;SDS011;19946;49.306;11.350;2022-12-18T10:00:53;22.57;;;21.87;;
595;SDS011;19946;49.306;11.350;2022-12-18T10:03:57;23.50;;;22.80;;
595;SDS011;19946;49.306;11.350;2022-12-18T10:07:00;24.20;;;23.50;;
595;SDS011;19946;49.306;11.350;2022-12-18T10:13:35;23.73;;;23.03;;
595;SDS011;19946;49.306;11.350;2022-12-18T10:17:03;24.70;;;24.00;;
595;SDS011;19946;49.306;11.350;2022-12-18T10:20:22;22.80;;;22.10;;
595;SDS011;19946;49.306;11.350;2022-12-18T10:23:29;21.23;;;20.63;;
595;SDS011;19946;49.306;11.350;2022-12-18T10:26:40;22.70;;;22.00;;
595;SDS011;19946;49.306;11.350;2022-12-18T10:30:04;21.40;;;20.80;;
595;SDS011;19946;49.306;11.350;2022-12-18T10:33:18;20.57;;;19.97;;
595;SDS011;19946;49.306;11.350;2022-12-18T10:36:23;20.80;;;20.20;;
595;SDS011;19946;49.306;11.350;2022-12-18T10:39:24;21.07;;;20.47;;
595;SDS011;19946;49.306;11.350;2022-12-18T10:42:26;20.67;;;20.07;;
595;SDS011;19946;49.306;11.350;2022-12-18T10:45:27;20.13;;;19.53;;
595;SDS011;19946;49.306;11.350;2022-12-18T10:48:29;19.07;;;18.57;;
595;SDS011;19946;49.306;11.350;2022-12-18T10:51:31;20.20;;;19.60;;
595;SDS011;19946;49.306;11.350;2022-12-18T10:54:34;19.97;;;19.37;;
595;SDS011;19946;49.306;11.350;2022-12-18T10:57:37;20.33;;;19.73;;
595;SDS011;19946;49.306;11.350;2022-12-18T11:00:39;18.83;;;18.33;;
595;SDS011;19946;49.306;11.350;2022-12-18T11:03:40;20.27;;;19.67;;
595;SDS011;19946;49.306;11.350;2022-12-18T11:10:05;20.10;;;19.50;;
595;SDS011;19946;49.306;11.350;2022-12-18T11:13:10;19.93;;;19.33;;
595;SDS011;19946;49.306;11.350;2022-12-18T11:16:17;20.20;;;19.60;;
595;SDS011;19946;49.306;11.350;2022-12-18T11:22:32;19.67;;;19.07;;
595;SDS011;19946;49.306;11.350;2022-12-18T11:25:38;20.87;;;20.27;;
595;SDS011;19946;49.306;11.350;2022-12-18T11:28:40;20.33;;;19.73;;
595;SDS011;19946;49.306;11.350;2022-12-18T11:31:43;20.03;;;19.43;;
595;SDS011;19946;49.306;11.350;2022-12-18T11:34:45;19.77;;;19.17;;
595;SDS011;19946;49.306;11.350;2022-12-18T11:37:50;18.63;;;18.13;;
595;SDS011;19946;49.306;11.350;2022-12-18T11:40:59;19.87;;;19.27;;
595;SDS011;19946;49.306;11.350;2022-12-18T11:44:06;19.23;;;18.73;;
595;SDS011;19946;49.306;11.350;2022-12-18T11:47:13;19.40;;;18.83;;
595;SDS011;19946;49.306;11.350;2022-12-18T11:50:23;18.00;;;17.50;;
595;SDS011;19946;49.306;11.350;2022-12-18T11:53:26;18.33;;;17.83;;
595;SDS011;19946;49.306;11.350;2022-12-18T11:56:31;19.77;;;19.17;;
595;SDS011;19946;49.306;11.350;2022-12-18T11:59:42;18.20;;;17.70;;
595;SDS011;19946;49.306;11.350;2022-12-18T12:03:50;19.00;;;18.50;;
595;SDS011;19946;49.306;11.350;2022-12-18T12:13:31;18.60;;;18.10;;
595;SDS011;19946;49.306;11.350;2022-12-18T12:16:48;18.13;;;17.63;;
595;SDS011;19946;49.306;11.350;2022-12-18T12:20:31;17.53;;;17.03;;
595;SDS011;19946;49.306;11.350;2022-12-18T12:23:34;17.13;;;16.63;;
595;SDS011;19946;49.306;11.350;2022-12-18T12:26:57;17.43;;;16.93;;
595;SDS011;19946;49.306;11.350;2022-12-18T12:30:20;17.60;;;17.10;;
595;SDS011;19946;49.306;11.350;2022-12-18T12:39:48;18.50;;;18.00;;
595;SDS011;19946;49.306;11.350;2022-12-18T12:42:56;18.77;;;18.23;;
595;SDS011;19946;49.306;11.350;2022-12-18T12:46:13;17.87;;;17.37;;
595;SDS011;19946;49.306;11.350;2022-12-18T12:49:18;18.07;;;17.57;;
595;SDS011;19946;49.306;11.350;2022-12-18T12:52:26;18.23;;;17.73;;
595;SDS011;19946;49.306;11.350;2022-12-18T12:55:30;18.20;;;17.70;;
595;SDS011;19946;49.306;11.350;2022-12-18T12:58:37;18.20;;;17.70;;
595;SDS011;19946;49.306;11.350;2022-12-18T13:09:19;19.10;;;18.50;;
595;SDS011;19946;49.306;11.350;2022-12-18T13:12:12;19.13;;;18.53;;
595;SDS011;19946;49.306;11.350;2022-12-18T13:15:47;19.40;;;18.80;;
595;SDS011;19946;49.306;11.350;2022-12-18T13:19:03;18.33;;;17.83;;
595;SDS011;19946;49.306;11.350;2022-12-18T13:22:03;18.40;;;17.90;;
595;SDS011;19946;49.306;11.350;2022-12-18T13:25:26;18.63;;;18.07;;
595;SDS011;19946;49.306;11.350;2022-12-18T13:34:45;17.63;;;17.13;;
595;SDS011;19946;49.306;11.350;2022-12-18T13:37:52;17.90;;;17.40;;
595;SDS011;19946;49.306;11.350;2022-12-18T13:40:54;17.00;;;16.50;;
595;SDS011;19946;49.306;11.350;2022-12-18T13:43:56;19.70;;;19.13;;
595;SDS011;19946;49.306;11.350;2022-12-18T13:47:31;17.20;;;16.70;;
595;SDS011;19946;49.306;11.350;2022-12-18T13:50:33;17.63;;;17.13;;
595;SDS011;19946;49.306;11.350;2022-12-18T13:53:35;17.07;;;16.57;;
595;SDS011;19946;49.306;11.350;2022-12-18T13:56:42;17.33;;;16.83;;
595;SDS011;19946;49.306;11.350;2022-12-18T13:59:44;17.10;;;16.60;;
595;SDS011;19946;49.306;11.350;2022-12-18T14:02:45;16.70;;;16.30;;
595;SDS011;19946;49.306;11.350;2022-12-18T14:05:46;17.47;;;16.97;;
595;SDS011;19946;49.306;11.350;2022-12-18T14:08:53;17.77;;;17.27;;
595;SDS011;19946;49.306;11.350;2022-12-18T14:11:54;17.20;;;16.70;;
595;SDS011;19946;49.306;11.350;2022-12-18T14:15:20;16.60;;;16.20;;
595;SDS011;19946;49.306;11.350;2022-12-18T14:18:35;17.50;;;17.00;;
595;SDS011;19946;49.306;11.350;2022-12-18T14:21:38;16.90;;;16.50;;
595;SDS011;19946;49.306;11.350;2022-12-18T14:24:38;16.20;;;15.80;;
595;SDS011;19946;49.306;11.350;2022-12-18T14:27:50;16.07;;;15.67;;
595;SDS011;19946;49.306;11.350;2022-12-18T14:31:03;16.00;;;15.60;;
595;SDS011;19946;49.306;11.350;2022-12-18T14:34:03;16.57;;;16.17;;
595;SDS011;19946;49.306;11.350;2022-12-18T14:37:04;16.60;;;16.20;;
595;SDS011;19946;49.306;11.350;2022-12-18T14:40:06;16.33;;;15.93;;
595;SDS011;19946;49.306;11.350;2022-12-18T14:43:17;16.70;;;16.30;;
595;SDS011;19946;49.306;11.350;2022-12-18T14:49:45;17.00;;;16.60;;
595;SDS011;19946;49.306;11.350;2022-12-18T14:52:49;16.23;;;15.83;;
595;SDS011;19946;49.306;11.350;2022-12-18T14:55:51;16.10;;;15.70;;
595;SDS011;19946;49.306;11.350;2022-12-18T14:58:59;16.80;;;16.40;;
595;SDS011;19946;49.306;11.350;2022-12-18T15:02:19;16.50;;;16.10;;
595;SDS011;19946;49.306;11.350;2022-12-18T15:05:29;16.30;;;15.90;;
595;SDS011;19946;49.306;11.350;2022-12-18T15:08:38;16.03;;;15.63;;
595;SDS011;19946;49.306;11.350;2022-12-18T15:14:54;16.10;;;15.70;;
595;SDS011;19946;49.306;11.350;2022-12-18T15:18:05;16.60;;;16.20;;
595;SDS011;19946;49.306;11.350;2022-12-18T15:21:24;17.20;;;16.80;;
595;SDS011;19946;49.306;11.350;2022-12-18T15:24:44;17.40;;;16.97;;
595;SDS011;19946;49.306;11.350;2022-12-18T15:27:49;17.67;;;17.17;;
595;SDS011;19946;49.306;11.350;2022-12-18T15:42:25;20.30;;;19.70;;
595;SDS011;19946;49.306;11.350;2022-12-18T15:45:45;19.17;;;18.67;;
595;SDS011;19946;49.306;11.350;2022-12-18T15:48:52;18.10;;;17.60;;
595;SDS011;19946;49.306;11.350;2022-12-18T15:51:56;17.23;;;16.83;;
595;SDS011;19946;49.306;11.350;2022-12-18T15:54:59;16.53;;;16.13;;
595;SDS011;19946;49.306;11.350;2022-12-18T15:58:20;18.10;;;17.60;;
595;SDS011;19946;49.306;11.350;2022-12-18T16:01:25;16.80;;;16.40;;
595;SDS011;19946;49.306;11.350;2022-12-18T16:04:28;16.50;;;16.10;;
595;SDS011;19946;49.306;11.350;2022-12-18T16:07:29;15.63;;;15.23;;
595;SDS011;19946;49.306;11.350;2022-12-18T16:10:35;15.77;;;15.37;;
595;SDS011;19946;49.306;11.350;2022-12-18T16:13:36;16.43;;;16.03;;
595;SDS011;19946;49.306;11.350;2022-12-18T16:16:37;14.93;;;14.63;;
595;SDS011;19946;49.306;11.350;2022-12-18T16:19:38;15.70;;;15.30;;
595;SDS011;19946;49.306;11.350;2022-12-18T16:22:39;16.87;;;16.47;;
595;SDS011;19946;49.306;11.350;2022-12-18T16:25:43;16.13;;;15.73;;
595;SDS011;19946;49.306;11.350;2022-12-18T16:29:20;17.00;;;16.60;;
595;SDS011;19946;49.306;11.350;2022-12-18T16:32:57;16.30;;;15.90;;
595;SDS011;19946;49.306;11.350;2022-12-18T16:35:58;16.03;;;15.63;;
595;SDS011;19946;49.306;11.350;2022-12-18T16:39:05;15.57;;;15.17;;
595;SDS011;19946;49.306;11.350;2022-12-18T16:42:10;15.90;;;15.50;;
595;SDS011;19946;49.306;11.350;2022-12-18T16:45:17;16.03;;;15.63;;
595;SDS011;19946;49.306;11.350;2022-12-18T16:48:18;15.20;;;14.80;;
595;SDS011;19946;49.306;11.350;2022-12-18T16:51:19;15.73;;;15.33;;
595;SDS011;19946;49.306;11.350;2022-12-18T16:54:22;15.13;;;14.73;;
595;SDS011;19946;49.306;11.350;2022-12-18T16:57:23;15.97;;;15.57;;
595;SDS011;19946;49.306;11.350;2022-12-18T17:00:26;15.00;;;14.60;;
595;SDS011;19946;49.306;11.350;2022-12-18T17:03:28;15.60;;;15.20;;
595;SDS011;19946;49.306;11.350;2022-12-18T17:06:33;15.00;;;14.60;;
595;SDS011;19946;49.306;11.350;2022-12-18T17:09:38;15.40;;;15.00;;
595;SDS011;19946;49.306;11.350;2022-12-18T17:12:41;15.20;;;14.80;;
595;SDS011;19946;49.306;11.350;2022-12-18T17:15:42;15.73;;;15.33;;
595;SDS011;19946;49.306;11.350;2022-12-18T17:18:43;15.13;;;14.73;;
595;SDS011;19946;49.306;11.350;2022-12-18T17:21:50;14.80;;;14.50;;
595;SDS011;19946;49.306;11.350;2022-12-18T17:24:52;15.87;;;15.47;;
595;SDS011;19946;49.306;11.350;2022-12-18T17:27:54;15.93;;;15.53;;
595;SDS011;19946;49.306;11.350;2022-12-18T17:30:55;15.20;;;14.80;;
595;SDS011;19946;49.306;11.350;2022-12-18T17:34:01;14.60;;;14.30;;
595;SDS011;19946;49.306;11.350;2022-12-18T17:37:03;15.20;;;14.80;;
595;SDS011;19946;49.306;11.350;2022-12-18T17:40:04;15.60;;;15.20;;
595;SDS011;19946;49.306;11.350;2022-12-18T17:43:06;16.03;;;15.63;;
595;SDS011;19946;49.306;11.350;2022-12-18T17:46:14;15.70;;;15.30;;
595;SDS011;19946;49.306;11.350;2022-12-18T17:49:15;16.37;;;15.97;;
595;SDS011;19946;49.306;11.350;2022-12-18T17:52:19;16.23;;;15.83;;
595;SDS011;19946;49.306;11.350;2022-12-18T17:55:22;16.50;;;16.10;;
595;SDS011;19946;49.306;11.350;2022-12-18T17:59:06;16.07;;;15.67;;
595;SDS011;19946;49.306;11.350;2022-12-18T18:02:12;16.63;;;16.23;;
595;SDS011;19946;49.306;11.350;2022-12-18T18:05:40;16.40;;;16.00;;
595;SDS011;19946;49.306;11.350;2022-12-18T18:08:58;16.27;;;15.87;;
595;SDS011;19946;49.306;11.350;2022-12-18T18:11:59;16.07;;;15.67;;
595;SDS011;19946;49.306;11.350;2022-12-18T18:15:20;15.80;;;15.40;;
595;SDS011;19946;49.306;11.350;2022-12-18T18:18:21;16.37;;;15.97;;
595;SDS011;19946;49.306;11.350;2022-12-18T18:21:26;16.27;;;15.87;;
595;SDS011;19946;49.306;11.350;2022-12-18T18:24:28;16.33;;;15.93;;
595;SDS011;19946;49.306;11.350;2022-12-18T18:27:53;16.30;;;15.90;;
595;SDS011;19946;49.306;11.350;2022-12-18T18:31:08;16.00;;;15.60;;
595;SDS011;19946;49.306;11.350;2022-12-18T18:34:16;16.27;;;15.87;;
595;SDS011;19946;49.306;11.350;2022-12-18T18:37:52;16.23;;;15.83;;
595;SDS011;19946;49.306;11.350;2022-12-18T18:40:58;16.60;;;16.20;;
595;SDS011;19946;49.306;11.350;2022-12-18T18:44:34;16.87;;;16.47;;
595;SDS011;19946;49.306;11.350;2022-12-18T18:47:49;16.43;;;16.03;;
595;SDS011;19946;49.306;11.350;2022-12-18T18:51:04;16.07;;;15.67;;
595;SDS011;19946;49.306;11.350;2022-12-18T18:54:41;15.90;;;15.50;;
595;SDS011;19946;49.306;11.350;2022-12-18T18:58:11;16.50;;;16.10;;
595;SDS011;19946;49.306;11.350;2022-12-18T19:01:23;17.53;;;17.03;;
595;SDS011;19946;49.306;11.350;2022-12-18T19:04:57;17.27;;;16.87;;
595;SDS011;19946;49.306;11.350;2022-12-18T19:08:02;16.70;;;16.30;;
595;SDS011;19946;49.306;11.350;2022-12-18T19:11:16;16.80;;;16.40;;
595;SDS011;19946;49.306;11.350;2022-12-18T19:14:48;18.30;;;17.80;;
595;SDS011;19946;49.306;11.350;2022-12-18T19:18:09;18.63;;;18.13;;
595;SDS011;19946;49.306;11.350;2022-12-18T19:21:32;18.10;;;17.60;;
595;SDS011;19946;49.306;11.350;2022-12-18T19:24:41;18.10;;;17.60;;
595;SDS011;19946;49.306;11.350;2022-12-18T19:27:44;18.00;;;17.50;;
595;SDS011;19946;49.306;11.350;2022-12-18T19:30:53;17.93;;;17.43;;
595;SDS011;19946;49.306;11.350;2022-12-18T19:34:01;17.27;;;16.77;;
595;SDS011;19946;49.306;11.350;2022-12-18T19:37:04;18.60;;;18.10;;
595;SDS011;19946;49.306;11.350;2022-12-18T19:40:44;17.80;;;17.30;;
595;SDS011;19946;49.306;11.350;2022-12-18T19:44:24;16.60;;;16.20;;
595;SDS011;19946;49.306;11.350;2022-12-18T19:47:37;17.57;;;17.07;;
595;SDS011;19946;49.306;11.350;2022-12-18T19:50:41;17.57;;;17.07;;
595;SDS011;19946;49.306;11.350;2022-12-18T19:53:43;16.80;;;16.40;;
595;SDS011;19946;49.306;11.350;2022-12-18T19:56:44;16.47;;;16.07;;
595;SDS011;19946;49.306;11.350;2022-12-18T19:59:51;17.20;;;16.70;;
595;SDS011;19946;49.306;11.350;2022-12-18T20:02:53;17.80;;;17.30;;
595;SDS011;19946;49.306;11.350;2022-12-18T20:05:55;17.20;;;16.70;;
595;SDS011;19946;49.306;11.350;2022-12-18T20:09:10;17.50;;;17.00;;